• Join FlightAware (Why Join?)
  • Login
  • US Flag 
04:33AM EDT


 

Airport Tracker/Info


-or-


 

Live Flight TrackerFlight Track Log ✈ EJA396 ✈ 16-Dec-2013 ✈ KBNA - KCAK

Flight Track Log - Related Links

Times and Time Zones

All times are in EST time to prevent confusion due to time zone crossing. See the EJA396 flight status page for this flight to view local times or setup timezone preferences in your user account.

Time Position Orientation Groundspeed Altitude Reporting Facility
EST Latitude Longitude Course Direction KTS MPH feet Rate Location/Type
03:24PM 36.1000 -86.6833 270° West 138 159 1,400  Level Nashville TRACON
03:25PM 36.1000 -86.7333 270° West 219 252 4,800 4,140 Climbing Nashville TRACON
03:26PM 36.1428 -86.8114 304° West 253 291 11,400 4,260 Climbing Memphis Center
03:27PM 36.2231 -86.7542 30° Northeast 315 362 15,600 3,840 Climbing Memphis Center
03:28PM 36.3175 -86.6886 29° Northeast 345 397 19,400 3,360 Climbing Memphis Center
03:29PM 36.4078 -86.6250 30° Northeast 366 421 22,600 3,000 Climbing Memphis Center
03:30PM 36.5042 -86.5569 30° Northeast 389 448 25,600 2,820 Climbing Memphis Center
03:31PM 36.6036 -86.4858 30° Northeast 402 463 28,500 2,460 Climbing Memphis Center
03:32PM 36.7042 -86.4142 30° Northeast 410 472 30,800 2,220 Climbing Memphis Center
03:33PM 36.8347 -86.3442 23° Northeast 429 494 33,200 1,980 Climbing Memphis Center
03:34PM 36.9475 -86.2869 22° Northeast 431 496 35,000 840 Climbing Indianapolis Center
03:35PM 37.0653 -86.2281 22° Northeast 445 512 35,000  Level Indianapolis Center
03:36PM 37.1900 -86.1656 22° Northeast 470 541 35,000  Level Indianapolis Center
03:38PM 37.3092 -86.0947 25° Northeast 469 540 35,000  Level Indianapolis Center
03:39PM 37.4036 -85.9731 46° Northeast 501 577 35,000  Level Indianapolis Center
03:40PM 37.5117 -85.8381 45° Northeast 492 566 35,000  Level Indianapolis Center
03:41PM 37.6106 -85.7164 44° Northeast 495 570 35,000  Level Indianapolis Center
03:42PM 37.7089 -85.5942 44° Northeast 496 571 35,000  Level Indianapolis Center
03:43PM 37.8192 -85.4564 45° Northeast 493 567 35,000  Level Indianapolis Center
03:44PM 37.9042 -85.3492 45° Northeast 495 570 35,000  Level Indianapolis Center
03:45PM 38.0036 -85.2258 44° Northeast 499 574 35,000  Level Indianapolis Center
03:46PM 38.1144 -85.0844 45° Northeast 495 570 35,000  Level Indianapolis Center
03:47PM 38.2125 -84.9600 45° Northeast 497 572 35,000  Level Indianapolis Center
03:48PM 38.3119 -84.8333 45° Northeast 500 575 35,000  Level Indianapolis Center
03:49PM 38.4258 -84.6867 45° Northeast 498 573 35,000  Level Indianapolis Center
03:50PM 38.5247 -84.5619 45° Northeast 499 574 35,000  Level Indianapolis Center
03:51PM 38.6231 -84.4333 46° Northeast 502 578 35,000  Level Indianapolis Center
03:52PM 38.7100 -84.3222 45° Northeast 502 578 35,000  Level Indianapolis Center
03:53PM 38.8272 -84.1697 45° Northeast 502 578 35,000  Level Indianapolis Center
03:54PM 38.9244 -84.0406 46° Northeast 504 580 35,000 -600 Level Indianapolis Center
03:55PM 39.0222 -83.9147 45° Northeast 501 577 33,800 -1,860 Descending Indianapolis Center
03:56PM 39.1161 -83.7897 46° Northeast 493 567 31,200 -2,400 Descending Indianapolis Center
03:57PM 39.2092 -83.6686 45° Northeast 483 556 29,000 -1,380 Descending Indianapolis Center
03:58PM 39.3008 -83.5478 46° Northeast 475 547 28,400 -1,500 Descending Indianapolis Center
03:59PM 39.4119 -83.3986 46° Northeast 481 554 26,000 -2,100 Descending Indianapolis Center
04:00PM 39.4994 -83.2822 46° Northeast 463 533 24,100 -1,020 Descending Indianapolis Center
04:01PM 39.5839 -83.1681 46° Northeast 448 516 24,000 -60 Descending Indianapolis Center
04:02PM 39.6717 -83.0522 45° Northeast 454 522 24,000  Level Indianapolis Center
04:03PM 39.7569 -82.9353 46° Northeast 452 520 24,000  Level Indianapolis Center
04:04PM 39.8631 -82.7914 46° Northeast 462 532 24,000 -300 Level Indianapolis Center
04:05PM 39.9506 -82.6708 47° Northeast 462 532 23,400 -1,080 Descending Indianapolis Center
04:06PM 40.0364 -82.5553 46° Northeast 449 517 21,800 -1,620 Descending Indianapolis Center
04:07PM 40.1181 -82.4425 47° Northeast 433 498 20,100 -1,680 Descending Indianapolis Center
04:08PM 40.1989 -82.3303 47° Northeast 427 491 18,400 -1,680 Descending Indianapolis Center
04:09PM 40.2811 -82.2167 46° Northeast 417 480 16,700 -1,740 Descending Indianapolis Center
04:11PM 40.3678 -82.0950 47° Northeast 389 448 14,900 -1,680 Descending Indianapolis Center
04:12PM 40.4414 -81.9925 47° Northeast 384 442 13,300 -1,500 Descending Indianapolis Center
04:13PM 40.5156 -81.8992 44° Northeast 371 427 11,900 -1,320 Descending Indianapolis Center
04:14PM 40.5917 -81.8233 37° Northeast 344 396 10,600 -1,380 Descending Indianapolis Center
04:15PM 40.6586 -81.7578 37° Northeast 303 349 9,100 -1,800 Descending Indianapolis Center
04:16PM 40.7278 -81.7050 30° Northeast 289 333 7,000 -1,920 Descending Indianapolis Center
04:17PM 40.7978 -81.6600 26° Northeast 283 326 5,200 -1,080 Descending Indianapolis Center
04:18PM 40.8667 -81.6167 25° Northeast 277 319 4,800 -1,080 Descending Indianapolis Center
04:19PM 40.9325 -81.5419 41° Northeast 267 307 3,100 -840 Descending Indianapolis Center
04:20PM 40.9778 -81.4914 40° Northeast 234 269 3,100 -180 Level Indianapolis Center
04:21PM 40.9742 -81.4394 95° East 180 207 2,800 -480 Descending Indianapolis Center
04:22PM 40.9500 -81.4108 138° Southeast 141 162 2,200 -660 Descending Indianapolis Center
04:23PM 40.9242 -81.4278 206° Southwest 119 137 1,500 -720 Descending Indianapolis Center